createdAt,value
2023-05-20T00:00:38.719Z,102205.94
2023-05-20T00:06:02.606Z,102206.03
2023-05-20T00:11:25.036Z,102205.25
2023-05-20T00:16:47.310Z,102205.16
2023-05-20T00:22:09.632Z,102194.41
2023-05-20T00:27:32.045Z,102192.67
2023-05-20T00:32:54.485Z,102185.39
2023-05-20T00:38:16.768Z,102183.52
2023-05-20T00:43:39.067Z,102187.21
2023-05-20T00:49:03.735Z,102183.74
2023-05-20T00:54:26.301Z,102181.23
2023-05-20T00:59:49.180Z,102179.45
2023-05-20T01:05:12.508Z,102175.99
2023-05-20T01:10:36.744Z,102177.89
2023-05-20T01:16:01.775Z,102169.84
2023-05-20T01:21:24.905Z,102167.23
2023-05-20T01:26:48.789Z,102173.56
2023-05-20T01:32:14.977Z,102171.73
2023-05-20T01:37:40.662Z,102170.88
2023-05-20T01:43:04.794Z,102178.06
2023-05-20T01:48:28.725Z,102165.58
2023-05-20T01:53:51.309Z,102171.01
2023-05-20T01:59:14.165Z,102162.17
2023-05-20T02:04:36.778Z,102158.78
2023-05-20T02:10:00.020Z,102165.98
2023-05-20T02:15:22.824Z,102159.73
2023-05-20T02:20:47.103Z,102163.46
2023-05-20T02:26:10.630Z,102160.91
2023-05-20T02:31:33.043Z,102156.49
2023-05-20T02:36:55.326Z,102165.50
2023-05-20T02:42:18.959Z,102154.75
2023-05-20T02:47:41.340Z,102148.43
2023-05-20T02:53:03.810Z,102151.98
2023-05-20T02:58:26.797Z,102157.44
2023-05-20T03:03:49.447Z,102158.48
2023-05-20T03:09:11.888Z,102151.28
2023-05-20T03:14:34.234Z,102152.23
2023-05-20T03:19:56.601Z,102163.94
2023-05-20T03:25:19.235Z,102155.87
2023-05-20T03:30:42.143Z,102169.23
2023-05-20T03:36:04.515Z,102164.80
2023-05-20T03:41:26.871Z,102167.41
2023-05-20T03:46:49.210Z,102183.36
2023-05-20T03:52:11.605Z,102173.30
2023-05-20T03:57:34.243Z,102183.14
2023-05-20T04:02:56.739Z,102177.59
2023-05-20T04:08:19.553Z,102181.70
2023-05-20T04:13:43.813Z,102185.95
2023-05-20T04:19:06.220Z,102176.77
2023-05-20T04:24:28.543Z,102175.59
2023-05-20T04:29:50.838Z,102179.06
2023-05-20T04:35:14.209Z,102186.26
2023-05-20T04:40:36.674Z,102180.88
2023-05-20T04:46:00.208Z,102174.73
2023-05-20T04:51:23.064Z,102180.19
2023-05-20T04:56:46.547Z,102183.47
2023-05-20T05:02:09.028Z,102184.71
2023-05-20T05:07:31.404Z,102182.31
2023-05-20T05:12:53.736Z,102176.08
2023-05-20T05:18:17.734Z,102179.85
2023-05-20T05:23:40.130Z,102182.04
2023-05-20T05:29:02.395Z,102177.52
2023-05-20T05:34:24.832Z,102178.67
2023-05-20T05:39:47.178Z,102184.22
2023-05-20T05:45:10.116Z,102172.82
2023-05-20T05:50:32.604Z,102174.02
2023-05-20T05:55:55.467Z,102174.88
2023-05-20T06:01:17.804Z,102177.98
2023-05-20T06:06:40.237Z,102179.43
2023-05-20T06:12:03.227Z,102183.70
2023-05-20T06:17:26.164Z,102190.69
2023-05-20T06:22:49.141Z,102190.52
2023-05-20T06:28:12.915Z,102190.73
2023-05-20T06:33:36.969Z,102195.21
2023-05-20T06:38:59.970Z,102187.69
2023-05-20T06:44:23.048Z,102176.13
2023-05-20T06:49:47.537Z,102186.47
2023-05-20T06:55:10.412Z,102186.92
2023-05-20T07:00:32.820Z,102179.97
2023-05-20T07:05:55.517Z,102183.26
2023-05-20T07:11:17.800Z,102180.83
2023-05-20T07:16:40.807Z,102176.47
2023-05-20T07:22:03.642Z,102171.08
2023-05-20T07:27:25.929Z,102173.57
2023-05-20T07:32:48.283Z,102169.77
2023-05-20T07:38:11.233Z,102163.62
2023-05-20T07:43:33.631Z,102160.72
2023-05-20T07:48:55.925Z,102156.61
2023-05-20T07:54:18.725Z,102156.73
2023-05-20T07:59:41.467Z,102156.48
2023-05-20T08:05:05.210Z,102149.67
2023-05-20T08:10:28.347Z,102144.27
2023-05-20T08:15:51.174Z,102149.22
2023-05-20T08:21:14.625Z,102147.00
2023-05-20T08:26:36.993Z,102130.28
2023-05-20T08:31:59.626Z,102128.45
2023-05-20T08:37:22.330Z,102130.53
2023-05-20T08:42:47.262Z,102141.15
2023-05-20T08:48:11.170Z,102131.20
2023-05-20T08:53:36.307Z,102124.41
2023-05-20T08:58:59.436Z,102120.10
2023-05-20T09:04:23.044Z,102105.19
2023-05-20T09:09:47.478Z,102105.84
2023-05-20T09:15:10.718Z,102101.61
2023-05-20T09:20:35.134Z,102102.84
2023-05-20T09:25:58.678Z,102099.75
2023-05-20T09:31:22.840Z,102089.47
2023-05-20T09:36:49.378Z,102095.49
2023-05-20T09:42:20.890Z,102077.30
2023-05-20T09:47:45.553Z,102075.55
2023-05-20T09:53:10.333Z,102068.78
2023-05-20T09:58:36.911Z,102076.89
2023-05-20T10:04:03.508Z,102067.84
2023-05-20T10:09:42.238Z,102077.93
2023-05-20T10:15:26.610Z,102074.02
2023-05-20T10:21:01.735Z,102081.03
2023-05-20T10:26:27.015Z,102057.08
2023-05-20T10:31:52.678Z,102050.04
2023-05-20T10:37:20.192Z,102043.86
2023-05-20T10:42:49.959Z,102049.91
2023-05-20T10:48:15.275Z,102036.44
2023-05-20T10:53:47.052Z,102037.94
2023-05-20T10:59:10.830Z,102039.55
2023-05-20T11:04:35.204Z,102032.43
2023-05-20T11:10:04.463Z,102035.75
2023-05-20T11:15:29.335Z,102021.62
2023-05-20T11:20:54.561Z,102016.95
2023-05-20T11:26:18.454Z,102010.02
2023-05-20T11:31:41.150Z,102018.69
2023-05-20T11:37:11.908Z,102016.96
2023-05-20T11:42:34.955Z,102016.83
2023-05-20T11:48:08.287Z,102014.92
2023-05-20T11:53:38.924Z,102011.23
2023-05-20T11:59:06.886Z,102008.88
2023-05-20T12:04:29.329Z,102000.50
2023-05-20T12:09:51.969Z,102000.48
2023-05-20T12:15:14.681Z,101997.84
2023-05-20T12:20:38.752Z,101990.17
2023-05-20T12:26:01.561Z,101981.61
2023-05-20T12:31:23.992Z,101988.91
2023-05-20T12:36:46.652Z,101983.78
2023-05-20T12:42:09.351Z,101976.34
2023-05-20T12:47:33.352Z,101973.05
2023-05-20T12:52:55.937Z,101966.63
2023-05-20T12:58:18.479Z,101958.92
2023-05-20T13:03:40.997Z,101958.19
2023-05-20T13:09:03.356Z,101946.56
2023-05-20T13:14:26.279Z,101942.98
2023-05-20T13:19:49.405Z,101934.46
2023-05-20T13:25:12.396Z,101925.34
2023-05-20T13:30:35.154Z,101923.77
2023-05-20T13:35:57.718Z,101916.41
2023-05-20T13:41:20.094Z,101915.69
2023-05-20T13:46:42.614Z,101913.80
2023-05-20T13:52:05.630Z,101913.65
2023-05-20T13:57:28.354Z,101900.67
2023-05-20T14:02:50.857Z,101899.77
2023-05-20T14:08:13.754Z,101894.87
2023-05-20T14:13:36.821Z,101881.61
2023-05-20T14:18:59.337Z,101882.66
2023-05-20T14:24:23.825Z,101866.16
2023-05-20T14:29:46.484Z,101860.06
2023-05-20T14:35:08.787Z,101871.92
2023-05-20T14:40:31.419Z,101861.03
2023-05-20T14:45:53.827Z,101869.80
2023-05-20T14:51:16.158Z,101856.02
2023-05-20T14:56:38.532Z,101858.16
2023-05-20T15:02:01.513Z,101855.04
2023-05-20T15:07:24.614Z,101846.33
2023-05-20T15:12:46.981Z,101857.60
2023-05-20T15:18:09.821Z,101854.62
2023-05-20T15:23:32.308Z,101851.30
2023-05-20T15:28:54.613Z,101826.56
2023-05-20T15:34:17.053Z,101827.63
2023-05-20T15:39:39.767Z,101817.09
2023-05-20T15:45:02.237Z,101803.42
2023-05-20T15:50:25.063Z,101812.64
2023-05-20T15:55:47.613Z,101806.07
2023-05-20T16:01:11.480Z,101804.32
2023-05-20T16:06:34.561Z,101795.59
2023-05-20T16:11:56.824Z,101780.73
2023-05-20T16:17:20.789Z,101788.77
2023-05-20T16:22:43.063Z,101776.14
2023-05-20T16:28:05.425Z,101770.96
2023-05-20T16:33:27.789Z,101767.30
2023-05-20T16:38:50.089Z,101777.92
2023-05-20T16:44:12.400Z,101769.09
2023-05-20T16:49:34.991Z,101775.25
2023-05-20T16:54:59.019Z,101775.84
2023-05-20T17:00:22.701Z,101776.10
2023-05-20T17:05:45.199Z,101778.25
2023-05-20T17:11:07.674Z,101772.16
2023-05-20T17:16:30.137Z,101770.34
2023-05-20T17:21:52.624Z,101779.37
2023-05-20T17:27:15.741Z,101774.70
2023-05-20T17:32:38.983Z,101777.44
2023-05-20T17:38:01.440Z,101776.37
2023-05-20T17:43:25.609Z,101776.61
2023-05-20T17:48:48.004Z,101769.70
2023-05-20T17:54:10.445Z,101770.59
2023-05-20T17:59:34.348Z,101766.81
2023-05-20T18:04:56.752Z,101764.14
2023-05-20T18:10:19.413Z,101755.58
2023-05-20T18:15:41.747Z,101759.48
2023-05-20T18:21:05.777Z,101763.75
2023-05-20T18:26:28.484Z,101763.18
2023-05-20T18:31:52.058Z,101754.92
2023-05-20T18:37:15.012Z,101752.92
2023-05-20T18:42:37.478Z,101749.66
2023-05-20T18:48:01.123Z,101745.86
2023-05-20T18:53:24.014Z,101740.83
2023-05-20T18:58:46.561Z,101749.28
2023-05-20T19:04:09.254Z,101757.53
2023-05-20T19:09:33.494Z,101753.16
2023-05-20T19:14:56.302Z,101750.98
2023-05-20T19:20:19.856Z,101749.09
2023-05-20T19:25:43.232Z,101755.30
2023-05-20T19:31:06.449Z,101746.63
2023-05-20T19:36:29.481Z,101748.43
2023-05-20T19:41:53.499Z,101740.09
2023-05-20T19:47:16.308Z,101739.41
2023-05-20T19:52:39.311Z,101741.72
2023-05-20T19:58:01.707Z,101743.06
2023-05-20T20:03:25.507Z,101744.97
2023-05-20T20:08:48.016Z,101746.39
2023-05-20T20:14:10.283Z,101751.45
2023-05-20T20:19:32.640Z,101753.34
2023-05-20T20:24:55.150Z,101759.93
2023-05-20T20:30:18.712Z,101759.89
2023-05-20T20:35:41.409Z,101756.08
2023-05-20T20:41:04.122Z,101752.40
2023-05-20T20:46:38.114Z,101750.69
2023-05-20T20:52:02.364Z,101746.41
2023-05-20T20:57:26.282Z,101750.93
2023-05-20T21:02:48.721Z,101757.46
2023-05-20T21:08:13.417Z,101753.41
2023-05-20T21:13:38.844Z,101743.45
2023-05-20T21:19:01.285Z,101752.04
2023-05-20T21:24:23.672Z,101748.34
2023-05-20T21:29:46.139Z,101757.70
2023-05-20T21:35:08.512Z,101747.59
2023-05-20T21:40:31.804Z,101746.59
2023-05-20T21:45:54.182Z,101744.77
2023-05-20T21:51:16.527Z,101740.20
2023-05-20T21:56:39.551Z,101741.77
2023-05-20T22:02:02.109Z,101736.84
2023-05-20T22:07:25.098Z,101741.11
2023-05-20T22:12:51.239Z,101743.08
2023-05-20T22:18:15.099Z,101739.14
2023-05-20T22:23:38.196Z,101740.00
2023-05-20T22:29:00.757Z,101743.45
2023-05-20T22:34:23.127Z,101742.47
2023-05-20T22:39:46.390Z,101738.04
2023-05-20T22:45:08.739Z,101742.95
2023-05-20T22:50:32.895Z,101742.30
2023-05-20T22:55:56.167Z,101737.75
2023-05-20T23:01:19.370Z,101738.69
2023-05-20T23:06:41.780Z,101735.13
2023-05-20T23:12:04.621Z,101738.90
2023-05-20T23:17:27.039Z,101733.61
2023-05-20T23:22:51.673Z,101733.00
2023-05-20T23:28:13.974Z,101736.89
2023-05-20T23:33:36.361Z,101742.78
2023-05-20T23:38:58.893Z,101743.86
2023-05-20T23:44:21.491Z,101740.03
2023-05-20T23:49:47.860Z,101747.37
2023-05-20T23:55:10.776Z,101744.91
